createdAt,value
2022-12-29T00:01:40.081Z,4.38
2022-12-29T00:04:11.452Z,5.00
2022-12-29T00:06:41.239Z,6.10
2022-12-29T00:09:07.822Z,4.40
2022-12-29T00:11:34.413Z,4.53
2022-12-29T00:14:25.741Z,6.38
2022-12-29T00:16:52.631Z,6.63
2022-12-29T00:19:38.021Z,3.50
2022-12-29T00:22:23.261Z,4.75
2022-12-29T00:25:08.142Z,4.38
2022-12-29T00:27:52.882Z,4.70
2022-12-29T00:30:40.630Z,5.55
2022-12-29T00:33:37.268Z,3.90
2022-12-29T00:36:22.804Z,5.25
2022-12-29T00:39:11.006Z,3.15
2022-12-29T00:41:55.800Z,5.47
2022-12-29T00:44:22.283Z,3.03
2022-12-29T00:46:48.797Z,4.90
2022-12-29T00:49:34.086Z,4.00
2022-12-29T00:52:13.393Z,3.88
2022-12-29T00:54:41.823Z,3.75
2022-12-29T00:57:10.471Z,3.88
2022-12-29T00:59:40.897Z,5.30
2022-12-29T01:02:08.143Z,4.25
2022-12-29T01:04:34.858Z,4.18
2022-12-29T01:07:01.437Z,4.15
2022-12-29T01:09:46.807Z,4.23
2022-12-29T01:12:13.666Z,3.88
2022-12-29T01:17:07.207Z,6.65
2022-12-29T01:19:33.915Z,2.97
2022-12-29T01:22:00.410Z,2.85
2022-12-29T01:24:27.318Z,2.55
2022-12-29T01:26:55.322Z,2.80
2022-12-29T01:29:22.490Z,4.68
2022-12-29T01:31:50.483Z,2.58
2022-12-29T01:34:17.142Z,1.30
2022-12-29T01:36:43.563Z,1.40
2022-12-29T01:39:09.962Z,1.45
2022-12-29T01:41:36.439Z,2.95
2022-12-29T01:44:03.068Z,2.10
2022-12-29T01:46:51.083Z,6.13
2022-12-29T01:49:23.008Z,1.42
2022-12-29T01:51:51.848Z,1.17
2022-12-29T01:54:21.061Z,1.67
2022-12-29T01:56:48.482Z,2.97
2022-12-29T02:01:48.370Z,2.75
2022-12-29T02:04:15.471Z,3.30
2022-12-29T02:07:02.558Z,4.53
2022-12-29T02:09:29.458Z,4.97
2022-12-29T02:11:57.398Z,4.13
2022-12-29T02:14:23.797Z,4.85
2022-12-29T02:16:59.137Z,4.70
2022-12-29T02:20:10.882Z,3.80
2022-12-29T02:22:56.536Z,3.70
2022-12-29T02:25:47.979Z,5.55
2022-12-29T02:28:35.190Z,3.60
2022-12-29T02:31:13.978Z,3.55
2022-12-29T02:34:01.565Z,4.20
2022-12-29T02:37:05.231Z,4.05
2022-12-29T02:39:38.165Z,5.32
2022-12-29T02:42:17.960Z,2.97
2022-12-29T02:45:10.814Z,2.72
2022-12-29T02:47:49.039Z,3.58
2022-12-29T02:50:35.991Z,4.40
2022-12-29T02:53:15.788Z,4.63
2022-12-29T02:55:49.953Z,4.85
2022-12-29T02:58:22.598Z,4.10
2022-12-29T03:01:07.545Z,3.22
2022-12-29T03:03:59.396Z,3.40
2022-12-29T03:06:36.458Z,4.78
2022-12-29T03:09:19.476Z,3.08
2022-12-29T03:12:11.151Z,4.50
2022-12-29T03:15:26.997Z,6.60
2022-12-29T03:18:03.282Z,3.30
2022-12-29T03:20:43.446Z,4.50
2022-12-29T03:23:11.807Z,3.83
2022-12-29T03:25:43.496Z,2.25
2022-12-29T03:28:19.707Z,2.08
2022-12-29T03:30:47.529Z,3.10
2022-12-29T03:33:18.313Z,2.50
2022-12-29T03:35:48.628Z,1.42
2022-12-29T03:38:27.392Z,2.47
2022-12-29T03:41:01.607Z,2.47
2022-12-29T03:43:29.332Z,2.92
2022-12-29T03:45:55.891Z,2.47
2022-12-29T03:48:22.433Z,2.10
2022-12-29T03:50:48.873Z,3.73
2022-12-29T03:53:15.408Z,2.83
2022-12-29T03:55:41.896Z,5.03
2022-12-29T03:58:08.436Z,6.37
2022-12-29T04:00:34.852Z,3.03
2022-12-29T04:03:01.371Z,5.38
2022-12-29T04:05:28.094Z,3.40
2022-12-29T04:07:54.686Z,2.35
2022-12-29T04:10:21.160Z,2.03
2022-12-29T04:12:47.596Z,3.83
2022-12-29T04:15:14.522Z,4.40
2022-12-29T04:17:41.042Z,4.20
2022-12-29T04:20:26.419Z,2.63
2022-12-29T04:23:05.676Z,3.90
2022-12-29T04:25:34.027Z,3.05
2022-12-29T04:28:01.323Z,2.80
2022-12-29T04:30:28.016Z,6.07
2022-12-29T04:32:54.595Z,3.90
2022-12-29T04:35:21.081Z,2.75
2022-12-29T04:37:47.557Z,3.80
2022-12-29T04:40:14.071Z,1.93
2022-12-29T04:42:41.123Z,2.53
2022-12-29T04:45:08.419Z,1.90
2022-12-29T04:47:34.830Z,2.10
2022-12-29T04:50:01.357Z,2.65
2022-12-29T04:52:27.848Z,3.73
2022-12-29T04:54:54.281Z,2.57
2022-12-29T04:57:20.780Z,4.73
2022-12-29T04:59:47.257Z,2.20
2022-12-29T05:02:13.762Z,2.80
2022-12-29T05:04:41.065Z,1.67
2022-12-29T05:07:07.537Z,3.53
2022-12-29T05:09:34.009Z,5.65
2022-12-29T05:12:00.594Z,3.33
2022-12-29T05:14:27.714Z,5.87
2022-12-29T05:16:54.102Z,2.65
2022-12-29T05:19:20.673Z,1.70
2022-12-29T05:21:47.172Z,2.63
2022-12-29T05:24:13.737Z,2.55
2022-12-29T05:26:40.298Z,4.43
2022-12-29T05:29:06.682Z,1.63
2022-12-29T05:31:34.613Z,3.45
2022-12-29T05:34:01.027Z,4.43
2022-12-29T05:36:30.639Z,3.65
2022-12-29T05:39:00.941Z,1.85
2022-12-29T05:41:27.627Z,8.43
2022-12-29T05:43:53.996Z,6.38
2022-12-29T05:46:20.551Z,5.07
2022-12-29T05:48:46.984Z,7.30
2022-12-29T05:51:13.527Z,7.30
2022-12-29T05:56:07.557Z,5.82
2022-12-29T05:58:34.267Z,5.50
2022-12-29T06:01:00.748Z,4.68
2022-12-29T06:03:27.482Z,4.50
2022-12-29T06:05:54.012Z,3.45
2022-12-29T06:08:20.445Z,7.03
2022-12-29T06:10:46.956Z,6.60
2022-12-29T06:13:13.378Z,7.13
2022-12-29T06:15:39.853Z,7.90
2022-12-29T06:18:06.243Z,4.90
2022-12-29T06:20:32.769Z,10.48
2022-12-29T06:22:59.329Z,5.80
2022-12-29T06:25:25.849Z,8.80
2022-12-29T06:27:52.244Z,4.70
2022-12-29T06:30:18.630Z,7.50
2022-12-29T06:32:45.706Z,4.43
2022-12-29T06:35:12.366Z,5.28
2022-12-29T06:37:38.947Z,7.82
2022-12-29T06:40:06.152Z,5.20
2022-12-29T06:42:32.576Z,4.85
2022-12-29T06:45:01.599Z,5.30
2022-12-29T06:47:28.176Z,6.90
2022-12-29T06:49:54.651Z,9.25
2022-12-29T06:52:21.115Z,7.82
2022-12-29T06:54:47.544Z,6.32
2022-12-29T06:57:13.927Z,8.18
2022-12-29T06:59:40.635Z,7.57
2022-12-29T07:02:07.270Z,8.57
2022-12-29T07:04:33.896Z,6.75
2022-12-29T07:07:00.305Z,7.50
2022-12-29T07:09:26.987Z,8.13
2022-12-29T07:11:53.443Z,6.68
2022-12-29T07:14:19.843Z,3.22
2022-12-29T07:16:46.425Z,8.35
2022-12-29T07:19:12.990Z,4.50
2022-12-29T07:21:46.580Z,3.83
2022-12-29T07:24:12.995Z,6.78
2022-12-29T07:26:39.400Z,7.45
2022-12-29T07:29:05.804Z,6.55
2022-12-29T07:31:33.193Z,5.22
2022-12-29T07:36:30.775Z,11.27
2022-12-29T07:39:00.534Z,5.95
2022-12-29T07:41:26.970Z,5.00
2022-12-29T07:43:53.410Z,5.65
2022-12-29T07:46:56.655Z,4.40
2022-12-29T07:49:06.432Z,7.32
2022-12-29T07:51:33.316Z,5.70
2022-12-29T07:54:01.438Z,5.00
2022-12-29T07:56:28.253Z,4.40
2022-12-29T07:58:54.695Z,5.20
2022-12-29T08:01:22.326Z,5.57
2022-12-29T08:03:53.974Z,5.40
2022-12-29T08:06:23.446Z,5.60
2022-12-29T08:08:50.474Z,4.85
2022-12-29T08:11:17.127Z,4.20
2022-12-29T08:13:43.611Z,6.10
2022-12-29T08:16:10.265Z,5.87
2022-12-29T08:18:36.789Z,5.15
2022-12-29T08:21:06.905Z,4.45
2022-12-29T08:23:33.690Z,5.65
2022-12-29T08:26:01.992Z,6.70
2022-12-29T08:28:28.924Z,2.75
2022-12-29T08:30:58.718Z,4.82
2022-12-29T08:33:25.697Z,6.43
2022-12-29T08:35:52.248Z,6.95
2022-12-29T08:38:19.016Z,5.80
2022-12-29T08:40:45.442Z,8.15
2022-12-29T08:43:13.710Z,6.03
2022-12-29T08:45:43.825Z,10.27
2022-12-29T08:48:12.297Z,4.43
2022-12-29T08:50:39.115Z,5.00
2022-12-29T08:53:05.683Z,11.52
2022-12-29T08:55:32.154Z,5.83
2022-12-29T08:57:58.819Z,4.47
2022-12-29T09:00:26.344Z,8.50
2022-12-29T09:02:53.172Z,6.45
2022-12-29T09:05:19.810Z,9.85
2022-12-29T09:07:46.292Z,12.57
2022-12-29T09:10:12.760Z,9.10
2022-12-29T09:12:39.434Z,7.63
2022-12-29T09:15:07.261Z,6.30
2022-12-29T09:17:46.384Z,7.65
2022-12-29T09:20:18.619Z,9.32
2022-12-29T09:22:46.183Z,5.05
2022-12-29T09:25:14.653Z,7.60
2022-12-29T09:27:41.196Z,6.72
2022-12-29T09:30:11.416Z,5.57
2022-12-29T09:32:44.521Z,12.38
2022-12-29T09:35:11.738Z,10.27
2022-12-29T09:37:38.195Z,7.10
2022-12-29T09:40:06.207Z,8.63
2022-12-29T09:42:52.638Z,8.32
2022-12-29T09:45:33.329Z,8.77
2022-12-29T09:48:03.025Z,4.00
2022-12-29T09:50:38.174Z,7.97
2022-12-29T09:53:33.079Z,11.60
2022-12-29T09:56:02.470Z,5.03
2022-12-29T09:58:46.098Z,8.25
2022-12-29T10:01:30.217Z,9.88
2022-12-29T10:03:58.510Z,14.00
2022-12-29T10:07:11.415Z,9.13
2022-12-29T10:09:54.380Z,9.40
2022-12-29T10:12:23.852Z,9.65
2022-12-29T10:15:18.642Z,11.80
2022-12-29T10:17:56.764Z,8.00
2022-12-29T10:23:14.740Z,9.30
2022-12-29T10:25:44.277Z,8.30
2022-12-29T10:28:17.259Z,8.43
2022-12-29T10:30:46.938Z,6.63
2022-12-29T10:33:19.979Z,8.05
2022-12-29T10:35:48.504Z,6.57
2022-12-29T10:38:39.331Z,8.43
2022-12-29T10:41:26.653Z,8.23
2022-12-29T10:43:57.908Z,4.95
2022-12-29T10:46:28.867Z,5.10
2022-12-29T10:48:55.278Z,5.28
2022-12-29T10:51:34.405Z,5.95
2022-12-29T10:54:10.383Z,5.47
2022-12-29T10:56:45.808Z,6.38
2022-12-29T10:59:23.318Z,6.63
2022-12-29T11:02:17.852Z,6.97
2022-12-29T11:05:08.265Z,8.98
2022-12-29T11:07:34.721Z,7.28
2022-12-29T11:10:37.621Z,9.40
2022-12-29T11:13:16.297Z,2.67
2022-12-29T11:15:48.037Z,8.15
2022-12-29T11:18:32.810Z,5.43
2022-12-29T11:21:02.455Z,4.68
2022-12-29T11:24:00.266Z,5.60
2022-12-29T11:26:33.901Z,5.47
2022-12-29T11:29:24.675Z,7.28
2022-12-29T11:31:56.921Z,6.75
2022-12-29T11:34:32.066Z,6.45
2022-12-29T11:37:07.286Z,5.40
2022-12-29T11:39:57.807Z,9.07
2022-12-29T11:42:40.978Z,7.15
2022-12-29T11:45:17.447Z,7.72
2022-12-29T11:47:47.799Z,7.88
2022-12-29T11:50:24.868Z,10.30
2022-12-29T11:53:12.122Z,6.80
2022-12-29T11:55:38.692Z,8.82
2022-12-29T11:58:06.015Z,6.33
2022-12-29T12:00:37.856Z,8.80
2022-12-29T12:03:25.613Z,10.05
2022-12-29T12:05:57.184Z,10.43
2022-12-29T12:08:42.916Z,8.88
2022-12-29T12:11:09.355Z,8.05
2022-12-29T12:13:48.970Z,10.18
2022-12-29T12:16:19.382Z,10.40
2022-12-29T12:18:48.653Z,8.68
2022-12-29T12:21:22.903Z,7.57
2022-12-29T12:24:20.189Z,8.95
2022-12-29T12:26:56.025Z,9.10
2022-12-29T12:30:00.621Z,10.25
2022-12-29T12:32:46.659Z,13.90
2022-12-29T12:35:21.571Z,9.45
2022-12-29T12:38:10.103Z,12.32
2022-12-29T12:40:59.372Z,9.18
2022-12-29T12:43:50.775Z,13.18
2022-12-29T12:47:08.005Z,7.57
2022-12-29T12:49:53.011Z,12.57
2022-12-29T12:52:46.963Z,9.43
2022-12-29T12:55:48.966Z,11.35
2022-12-29T12:58:42.802Z,7.70
2022-12-29T13:01:15.261Z,13.95
2022-12-29T13:04:09.458Z,12.82
2022-12-29T13:07:07.297Z,11.90
2022-12-29T13:10:21.034Z,9.90
2022-12-29T13:12:56.436Z,9.50
2022-12-29T13:15:37.781Z,10.48
2022-12-29T13:18:16.291Z,7.07
2022-12-29T13:20:54.435Z,7.97
2022-12-29T13:23:26.763Z,15.60
2022-12-29T13:26:01.843Z,6.07
2022-12-29T13:28:49.564Z,11.18
2022-12-29T13:31:18.986Z,7.68
2022-12-29T13:33:51.462Z,11.82
2022-12-29T13:36:18.094Z,6.57
2022-12-29T13:38:49.165Z,7.60
2022-12-29T13:41:33.496Z,7.53
2022-12-29T13:44:03.498Z,10.15
2022-12-29T13:46:35.857Z,11.27
2022-12-29T13:49:16.287Z,6.00
2022-12-29T13:51:52.871Z,9.73
2022-12-29T13:54:46.390Z,6.65
2022-12-29T13:57:46.032Z,7.35
2022-12-29T14:00:24.355Z,12.05
2022-12-29T14:03:12.132Z,8.85
2022-12-29T14:05:38.912Z,7.93
2022-12-29T14:08:14.347Z,14.27
2022-12-29T14:10:50.182Z,13.15
2022-12-29T14:13:23.139Z,11.25
2022-12-29T14:15:55.977Z,9.38
2022-12-29T14:18:25.453Z,16.20
2022-12-29T14:21:09.392Z,6.85
2022-12-29T14:23:38.353Z,12.32
2022-12-29T14:26:07.504Z,16.38
2022-12-29T14:28:35.364Z,10.40
2022-12-29T14:31:04.596Z,10.13
2022-12-29T14:33:33.585Z,11.43
2022-12-29T14:36:26.506Z,13.27
2022-12-29T14:38:53.116Z,10.38
2022-12-29T14:41:28.361Z,11.65
2022-12-29T14:44:02.222Z,11.38
2022-12-29T14:47:03.538Z,9.80
2022-12-29T14:49:34.241Z,12.60
2022-12-29T14:52:23.147Z,13.40
2022-12-29T14:54:58.773Z,7.05
2022-12-29T14:57:38.951Z,10.45
2022-12-29T15:00:28.251Z,7.22
2022-12-29T15:03:20.866Z,8.07
2022-12-29T15:05:52.105Z,7.45
2022-12-29T15:08:23.295Z,9.30
2022-12-29T15:10:55.415Z,8.05
2022-12-29T15:13:33.742Z,8.00
2022-12-29T15:16:00.321Z,4.65
2022-12-29T15:18:30.147Z,4.18
2022-12-29T15:21:04.240Z,4.50
2022-12-29T15:23:33.736Z,4.38
2022-12-29T15:26:03.356Z,3.15
2022-12-29T15:28:47.668Z,6.18
2022-12-29T15:31:17.348Z,6.50
2022-12-29T15:33:48.298Z,7.05
2022-12-29T15:36:26.762Z,6.80
2022-12-29T15:38:54.465Z,3.45
2022-12-29T15:41:29.847Z,5.45
2022-12-29T15:44:18.361Z,7.22
2022-12-29T15:46:45.043Z,7.97
2022-12-29T15:49:15.203Z,6.55
2022-12-29T15:51:41.797Z,7.03
2022-12-29T15:54:17.590Z,8.37
2022-12-29T15:56:44.703Z,11.82
2022-12-29T15:59:31.335Z,6.47
2022-12-29T16:02:00.083Z,9.68
2022-12-29T16:04:29.999Z,13.52
2022-12-29T16:07:00.115Z,11.88
2022-12-29T16:09:30.778Z,10.43
2022-12-29T16:12:01.009Z,6.60
2022-12-29T16:14:30.454Z,8.57
2022-12-29T16:17:01.467Z,7.47
2022-12-29T16:19:40.101Z,7.32
2022-12-29T16:22:39.575Z,9.32
2022-12-29T16:25:32.512Z,12.50
2022-12-29T16:28:00.710Z,8.48
2022-12-29T16:30:33.882Z,13.77
2022-12-29T16:33:03.870Z,9.32
2022-12-29T16:35:44.990Z,10.27
2022-12-29T16:38:23.489Z,9.48
2022-12-29T16:40:54.615Z,10.15
2022-12-29T16:43:25.555Z,9.73
2022-12-29T16:45:52.125Z,14.75
2022-12-29T16:48:22.900Z,7.83
2022-12-29T16:50:50.469Z,10.38
2022-12-29T16:53:25.769Z,7.85
2022-12-29T16:55:54.280Z,9.07
2022-12-29T16:58:24.781Z,13.07
2022-12-29T17:00:55.555Z,10.90
2022-12-29T17:03:22.191Z,7.00
2022-12-29T17:05:52.758Z,17.33
2022-12-29T17:08:23.857Z,11.85
2022-12-29T17:11:15.261Z,12.27
2022-12-29T17:13:42.234Z,6.97
2022-12-29T17:16:11.557Z,8.63
2022-12-29T17:18:38.389Z,11.98
2022-12-29T17:21:05.046Z,6.47
2022-12-29T17:23:34.257Z,4.77
2022-12-29T17:26:01.265Z,4.57
2022-12-29T17:28:32.340Z,7.22
2022-12-29T17:31:02.747Z,5.35
2022-12-29T17:33:34.038Z,4.55
2022-12-29T17:36:00.421Z,4.80
2022-12-29T17:38:30.276Z,4.72
2022-12-29T17:40:57.545Z,10.43
2022-12-29T17:43:24.100Z,4.45
2022-12-29T17:45:58.460Z,9.20
2022-12-29T17:48:25.382Z,5.10
2022-12-29T17:50:54.104Z,6.47
2022-12-29T17:53:23.695Z,7.45
2022-12-29T17:55:50.689Z,10.05
2022-12-29T17:58:25.449Z,6.05
2022-12-29T18:00:54.776Z,3.53
2022-12-29T18:03:28.291Z,11.40
2022-12-29T18:05:55.681Z,6.07
2022-12-29T18:08:22.181Z,10.30
2022-12-29T18:10:49.035Z,7.20
2022-12-29T18:13:26.398Z,10.00
2022-12-29T18:15:54.952Z,9.75
2022-12-29T18:18:24.069Z,13.93
2022-12-29T18:20:52.898Z,4.15
2022-12-29T18:23:24.129Z,12.23
2022-12-29T18:25:55.254Z,5.05
2022-12-29T18:28:21.776Z,7.25
2022-12-29T18:30:48.279Z,7.75
2022-12-29T18:33:21.957Z,7.90
2022-12-29T18:35:57.060Z,12.02
2022-12-29T18:38:23.619Z,8.02
2022-12-29T18:40:50.373Z,6.23
2022-12-29T18:43:18.444Z,9.43
2022-12-29T18:45:48.561Z,9.80
2022-12-29T18:48:19.619Z,7.50
2022-12-29T18:50:49.051Z,10.98
2022-12-29T18:53:17.866Z,5.85
2022-12-29T18:55:44.664Z,3.80
2022-12-29T18:58:11.228Z,7.28
2022-12-29T19:00:38.448Z,5.68
2022-12-29T19:03:05.337Z,4.28
2022-12-29T19:05:37.347Z,8.68
2022-12-29T19:08:04.708Z,17.67
2022-12-29T19:10:31.653Z,7.28
2022-12-29T19:12:58.374Z,7.22
2022-12-29T19:15:38.040Z,7.28
2022-12-29T19:18:42.520Z,7.55
2022-12-29T19:20:54.695Z,8.33
2022-12-29T19:23:23.946Z,10.85
2022-12-29T19:25:51.636Z,12.77
2022-12-29T19:28:29.085Z,6.70
2022-12-29T19:30:59.794Z,6.18
2022-12-29T19:33:26.891Z,11.88
2022-12-29T19:35:53.368Z,11.20
2022-12-29T19:38:20.377Z,7.40
2022-12-29T19:40:50.557Z,10.48
2022-12-29T19:43:17.837Z,4.57
2022-12-29T19:45:45.236Z,13.15
2022-12-29T19:48:14.580Z,6.32
2022-12-29T19:50:41.030Z,13.27
2022-12-29T19:53:07.570Z,10.70
2022-12-29T19:55:34.091Z,11.13
2022-12-29T19:58:00.549Z,12.20
2022-12-29T20:00:27.437Z,11.10
2022-12-29T20:02:54.089Z,12.23
2022-12-29T20:05:20.732Z,8.18
2022-12-29T20:07:47.132Z,11.60
2022-12-29T20:10:13.585Z,11.43
2022-12-29T20:12:40.239Z,14.50
2022-12-29T20:15:08.122Z,10.00
2022-12-29T20:18:10.823Z,7.68
2022-12-29T20:20:21.103Z,10.57
2022-12-29T20:22:47.545Z,10.60
2022-12-29T20:28:00.484Z,17.30
2022-12-29T20:30:26.912Z,8.75
2022-12-29T20:32:53.414Z,11.32
2022-12-29T20:35:19.871Z,13.35
2022-12-29T20:37:46.449Z,9.60
2022-12-29T20:40:13.029Z,12.63
2022-12-29T20:42:39.565Z,16.88
2022-12-29T20:45:06.217Z,12.40
2022-12-29T20:47:32.749Z,13.00
2022-12-29T20:49:59.369Z,16.17
2022-12-29T20:52:25.818Z,24.73
2022-12-29T20:54:52.300Z,11.05
2022-12-29T20:57:18.940Z,14.35
2022-12-29T20:59:45.482Z,9.37
2022-12-29T21:02:22.652Z,17.77
2022-12-29T21:07:35.850Z,14.73
2022-12-29T21:10:02.289Z,10.27
2022-12-29T21:12:28.758Z,18.60
2022-12-29T21:14:55.163Z,20.00
2022-12-29T21:17:21.669Z,14.73
2022-12-29T21:19:48.668Z,12.85
2022-12-29T21:22:15.121Z,12.15
2022-12-29T21:24:41.556Z,14.73
2022-12-29T21:27:07.907Z,15.98
2022-12-29T21:29:34.359Z,19.77
2022-12-29T21:32:06.490Z,15.13
2022-12-29T21:34:34.573Z,26.15
2022-12-29T21:37:01.628Z,24.52
2022-12-29T21:39:28.409Z,13.40
2022-12-29T21:41:59.999Z,15.80
2022-12-29T21:44:45.914Z,19.55
2022-12-29T21:47:12.721Z,8.80
2022-12-29T21:49:39.199Z,17.13
2022-12-29T21:52:05.678Z,18.38
2022-12-29T21:55:10.537Z,16.77
2022-12-29T21:58:12.556Z,13.43
2022-12-29T22:00:57.528Z,18.73
2022-12-29T22:03:42.863Z,15.45
2022-12-29T22:06:30.769Z,10.43
2022-12-29T22:09:15.734Z,11.23
2022-12-29T22:12:00.570Z,18.58
2022-12-29T22:14:27.080Z,11.70
2022-12-29T22:16:53.637Z,14.85
2022-12-29T22:19:20.093Z,15.85
2022-12-29T22:21:46.536Z,17.52
2022-12-29T22:24:12.925Z,16.92
2022-12-29T22:26:39.296Z,17.83
2022-12-29T22:29:05.865Z,16.02
2022-12-29T22:31:33.285Z,17.67
2022-12-29T22:34:01.996Z,16.60
2022-12-29T22:36:29.260Z,20.60
2022-12-29T22:38:55.840Z,15.43
2022-12-29T22:41:23.267Z,10.15
2022-12-29T22:43:49.812Z,15.07
2022-12-29T22:46:16.569Z,14.70
2022-12-29T22:48:43.271Z,19.75
2022-12-29T22:51:09.752Z,16.20
2022-12-29T22:53:36.179Z,11.45
2022-12-29T22:56:07.331Z,11.80
2022-12-29T22:58:34.571Z,12.20
2022-12-29T23:01:02.392Z,12.68
2022-12-29T23:03:28.943Z,13.80
2022-12-29T23:05:57.464Z,13.77
2022-12-29T23:08:24.025Z,17.13
2022-12-29T23:10:50.450Z,14.50
2022-12-29T23:13:16.943Z,12.90
2022-12-29T23:15:43.463Z,15.85
2022-12-29T23:18:09.952Z,10.13
2022-12-29T23:20:36.352Z,14.73
2022-12-29T23:23:02.742Z,10.75
2022-12-29T23:25:29.278Z,12.88
2022-12-29T23:27:55.703Z,10.98
2022-12-29T23:30:22.084Z,13.57
2022-12-29T23:32:48.568Z,9.05
2022-12-29T23:35:15.057Z,11.48
2022-12-29T23:37:41.498Z,10.27
2022-12-29T23:40:08.258Z,12.55
2022-12-29T23:42:34.648Z,17.80
2022-12-29T23:45:01.023Z,11.85
2022-12-29T23:47:27.484Z,9.73
2022-12-29T23:49:53.900Z,19.58
2022-12-29T23:52:20.242Z,11.02
2022-12-29T23:54:46.810Z,13.10
2022-12-29T23:57:13.167Z,14.57
2022-12-29T23:59:39.571Z,24.23
